Time;durP1;ratioP1;P1;durP2;ratioP2;P2;SDS_P1;SDS_P2;PMS_P1;PMS_P2;Temp;Humidity;BMP_temperature;BMP_pressure;BME280_temperature;BME280_humidity;BME280_pressure;Samples;Min_cycle;Max_cycle;Signal;HPM_P1;HPM_P2
2022/05/29 00:01:09;;;;;;;15.88;11.07;;;;;;;14.02;59.02;99226.94;5096529;28;20202;-78
2022/05/29 00:03:35;;;;;;;7.30;4.45;;;;;;;13.94;58.40;99223.00;5104687;28;20205;-79
2022/05/29 00:06:05;;;;;;;4.07;2.15;;;;;;;13.85;58.63;99226.44;5093591;28;20209;-78
2022/05/29 00:08:34;;;;;;;5.38;2.20;;;;;;;13.89;58.07;99222.50;5093923;28;20286;-79
2022/05/29 00:11:02;;;;;;;6.85;2.20;;;;;;;13.79;57.70;99221.47;5093936;28;20213;-78
2022/05/29 00:13:29;;;;;;;7.10;2.47;;;;;;;13.83;57.27;99214.00;5107148;28;20199;-78
2022/05/29 00:15:56;;;;;;;4.13;2.05;;;;;;;13.75;56.97;99215.47;5097181;28;20200;-78
2022/05/29 00:18:24;;;;;;;6.15;2.58;;;;;;;13.65;57.43;99205.47;5106444;28;20557;-77
2022/05/29 00:20:54;;;;;;;5.30;2.15;;;;;;;13.56;57.73;99209.72;5098496;28;20200;-78
2022/05/29 00:23:21;;;;;;;5.47;2.50;;;;;;;13.24;58.85;99204.06;5096687;28;20365;-78
2022/05/29 00:25:51;;;;;;;4.13;2.67;;;;;;;13.27;59.22;99206.50;5105914;28;20207;-78
2022/05/29 00:28:18;;;;;;;4.43;2.35;;;;;;;13.21;59.03;99207.84;5096292;28;20219;-79
2022/05/29 00:30:45;;;;;;;7.40;2.13;;;;;;;13.44;58.50;99206.13;5093049;28;20194;-79
2022/05/29 00:33:13;;;;;;;2.95;2.35;;;;;;;13.55;58.02;99195.34;5097246;28;20604;-77
2022/05/29 00:35:42;;;;;;;5.07;2.17;;;;;;;13.49;58.30;99195.81;5111431;28;20616;-79
2022/05/29 00:38:10;;;;;;;6.90;2.58;;;;;;;13.41;58.61;99195.56;5098250;28;20201;-78
2022/05/29 00:40:42;;;;;;;3.92;2.35;;;;;;;13.10;60.09;99205.09;5101556;28;20204;-79
2022/05/29 00:43:09;;;;;;;5.32;2.42;;;;;;;13.19;60.17;99198.13;5096076;28;20200;-78
2022/05/29 00:45:48;;;;;;;3.85;2.65;;;;;;;13.40;59.15;99196.53;5092691;28;20198;-79
2022/05/29 00:48:17;;;;;;;5.35;2.47;;;;;;;13.39;59.00;99196.66;5107604;28;20323;-78
2022/05/29 00:50:46;;;;;;;6.72;2.75;;;;;;;12.92;61.28;99196.50;5101658;28;20193;-78
2022/05/29 00:53:14;;;;;;;10.00;2.65;;;;;;;13.05;61.38;99197.31;5097877;28;20202;-78
2022/05/29 00:55:43;;;;;;;9.38;2.38;;;;;;;13.18;60.71;99190.97;5101898;28;20213;-77
2022/05/29 00:58:10;;;;;;;5.15;2.50;;;;;;;13.24;60.79;99185.97;5096013;28;20219;-78
2022/05/29 01:00:36;;;;;;;3.67;2.22;;;;;;;13.21;61.01;99186.22;5112795;28;20188;-78
2022/05/29 01:03:04;;;;;;;4.78;2.22;;;;;;;13.39;60.53;99186.69;5106773;28;20196;-78
2022/05/29 01:05:33;;;;;;;7.25;2.60;;;;;;;13.24;60.64;99185.13;5112479;28;20208;-78
2022/05/29 01:08:06;;;;;;;4.43;2.75;;;;;;;12.72;62.62;99171.81;5100061;28;20190;-78
2022/05/29 01:10:55;;;;;;;5.53;2.50;;;;;;;12.63;64.15;99167.09;5108494;28;20618;-78
2022/05/29 01:13:33;;;;;;;6.03;2.90;;;;;;;12.75;63.46;99164.47;5093811;28;20210;-78
2022/05/29 01:16:05;;;;;;;4.70;2.20;;;;;;;12.72;63.57;99166.41;5099761;28;20593;-78
2022/05/29 01:18:42;;;;;;;4.35;2.20;;;;;;;12.75;63.79;99169.88;5099332;28;20197;-78
2022/05/29 01:21:27;;;;;;;7.40;3.45;;;;;;;12.98;62.67;99176.25;5100415;28;20193;-78
2022/05/29 01:24:13;;;;;;;5.80;1.90;;;;;;;12.79;63.39;99168.66;5112204;28;20850;-78
2022/05/29 01:27:05;;;;;;;4.10;2.30;;;;;;;12.85;63.13;99170.94;5093234;28;20191;-78
2022/05/29 01:29:42;;;;;;;7.95;2.25;;;;;;;12.78;63.54;99166.97;5099085;28;20219;-79
2022/05/29 01:32:16;;;;;;;3.67;2.40;;;;;;;12.77;63.52;99167.91;5100009;28;20204;-78
2022/05/29 01:34:46;;;;;;;5.30;2.33;;;;;;;12.70;63.98;99162.97;5092462;28;20627;-79
2022/05/29 01:37:21;;;;;;;6.72;2.83;;;;;;;12.66;64.02;99158.78;5104774;28;20204;-79
2022/05/29 01:39:56;;;;;;;3.58;2.53;;;;;;;12.80;63.22;99159.56;5092886;28;20188;-78
2022/05/29 01:42:29;;;;;;;6.53;2.65;;;;;;;13.18;61.21;99163.94;5101337;28;20628;-78
2022/05/29 01:45:02;;;;;;;5.18;2.60;;;;;;;12.91;62.14;99152.41;5099524;28;20665;-77
2022/05/29 01:47:37;;;;;;;5.93;2.80;;;;;;;12.88;62.34;99154.47;5101159;28;20390;-78
2022/05/29 01:50:09;;;;;;;5.20;2.20;;;;;;;12.68;63.53;99148.69;5110906;28;20687;-78
2022/05/29 01:52:41;;;;;;;3.95;2.35;;;;;;;12.65;63.13;99156.19;5102445;28;20195;-78
2022/05/29 01:55:12;;;;;;;4.45;2.10;;;;;;;12.73;62.67;99153.78;5108957;28;20201;-78
2022/05/29 01:57:43;;;;;;;7.03;2.60;;;;;;;12.59;63.08;99148.53;5101773;28;20278;-79
2022/05/29 02:00:17;;;;;;;5.60;3.35;;;;;;;12.45;63.92;99149.53;5111279;28;20525;-79
2022/05/29 02:03:02;;;;;;;5.30;2.35;;;;;;;12.50;63.44;99147.38;5096141;28;20538;-79
2022/05/29 02:05:35;;;;;;;8.18;2.10;;;;;;;12.44;63.66;99146.00;5099967;28;20208;-78
2022/05/29 02:08:09;;;;;;;4.35;2.20;;;;;;;12.52;63.58;99143.56;5101721;28;20195;-79
2022/05/29 02:10:41;;;;;;;4.95;1.90;;;;;;;12.59;63.47;99135.88;5101099;28;20248;-78
2022/05/29 02:13:11;;;;;;;3.67;1.90;;;;;;;12.77;62.51;99144.47;5110537;28;20251;-79
2022/05/29 02:15:45;;;;;;;3.45;2.40;;;;;;;12.75;62.19;99137.44;5112306;28;20282;-78
2022/05/29 02:18:18;;;;;;;6.85;2.10;;;;;;;12.60;62.83;99134.06;5097531;28;20195;-78
2022/05/29 02:20:49;;;;;;;5.75;2.28;;;;;;;12.60;63.13;99129.53;5092679;28;20206;-77
2022/05/29 02:23:21;;;;;;;5.53;2.08;;;;;;;12.48;63.68;99130.41;5091810;28;20559;-78
2022/05/29 02:25:49;;;;;;;6.45;2.25;;;;;;;12.46;63.99;99127.00;5108689;28;20199;-79
2022/05/29 02:28:22;;;;;;;5.30;2.50;;;;;;;12.54;63.37;99124.56;5095145;28;20205;-78
2022/05/29 02:31:10;;;;;;;3.83;2.20;;;;;;;12.43;64.49;99122.66;5092150;28;20188;-78
2022/05/29 02:33:45;;;;;;;5.15;2.38;;;;;;;12.33;65.43;99127.00;5105383;28;20289;-78
2022/05/29 02:36:23;;;;;;;9.80;4.38;;;;;;;12.28;65.68;99132.75;5102980;28;20199;-78
2022/05/29 02:39:03;;;;;;;3.70;2.03;;;;;;;12.22;65.81;99119.69;5096292;28;20694;-78
2022/05/29 02:41:42;;;;;;;2.78;2.03;;;;;;;12.22;66.52;99124.22;5091574;28;20200;-78
2022/05/29 02:44:18;;;;;;;6.80;2.60;;;;;;;12.13;67.00;99128.44;5091737;28;20559;-78
2022/05/29 02:46:53;;;;;;;5.65;2.90;;;;;;;11.87;68.36;99123.09;5092570;28;20291;-78
2022/05/29 02:49:26;;;;;;;6.50;2.20;;;;;;;11.92;68.32;99128.16;5076571;28;20235;-79
2022/05/29 02:51:57;;;;;;;7.28;3.22;;;;;;;11.96;68.83;99118.00;5101371;28;20192;-78
2022/05/29 02:54:26;;;;;;;7.85;2.30;;;;;;;12.20;67.72;99120.78;5096049;28;20660;-77
2022/05/29 02:56:52;;;;;;;4.35;2.22;;;;;;;12.32;66.83;99117.16;5094649;28;20199;-78
2022/05/29 02:59:20;;;;;;;9.25;2.40;;;;;;;12.26;67.14;99121.19;5097613;28;20208;-77
2022/05/29 03:01:56;;;;;;;8.68;3.22;;;;;;;12.32;67.39;99122.56;5096542;28;20196;-78
2022/05/29 03:04:33;;;;;;;8.85;2.53;;;;;;;12.55;66.00;99117.31;5097632;28;20199;-78
2022/05/29 03:07:05;;;;;;;5.25;2.13;;;;;;;12.38;66.56;99116.72;5098945;28;20320;-78
2022/05/29 03:09:44;;;;;;;5.00;2.80;;;;;;;12.37;67.18;99115.03;5099292;28;20231;-78
2022/05/29 03:12:23;;;;;;;5.90;2.60;;;;;;;12.40;67.13;99111.22;5105731;28;20198;-79
2022/05/29 03:15:01;;;;;;;4.60;2.30;;;;;;;12.30;68.04;99116.41;5099142;28;20193;-78
2022/05/29 03:17:37;;;;;;;8.82;3.10;;;;;;;12.26;68.17;99115.78;5107961;28;20218;-78
2022/05/29 03:20:15;;;;;;;7.88;2.33;;;;;;;12.02;68.96;99109.47;5102866;28;20278;-78
2022/05/29 03:22:52;;;;;;;4.50;2.35;;;;;;;11.81;70.50;99109.16;5097983;28;20660;-77
2022/05/29 03:25:22;;;;;;;5.03;2.30;;;;;;;11.74;71.31;99116.81;5097420;28;20218;-78
2022/05/29 03:27:50;;;;;;;7.25;2.08;;;;;;;11.71;71.52;99122.41;5100315;28;20970;-78
2022/05/29 03:30:20;;;;;;;4.05;2.00;;;;;;;12.00;70.28;99119.50;5115022;28;20211;-78
2022/05/29 03:32:50;;;;;;;4.72;2.30;;;;;;;11.98;70.16;99121.44;5109851;28;20187;-78
2022/05/29 03:35:20;;;;;;;3.75;2.60;;;;;;;12.09;69.43;99125.09;5114300;28;20214;-78
2022/05/29 03:37:47;;;;;;;6.15;1.95;;;;;;;12.02;69.38;99129.22;5106650;28;20637;-78
2022/05/29 03:40:14;;;;;;;7.70;2.70;;;;;;;12.03;69.49;99130.06;5098283;28;20203;-78
2022/05/29 03:42:41;;;;;;;3.78;1.88;;;;;;;11.97;70.37;99141.31;5095254;28;20290;-77
2022/05/29 03:45:09;;;;;;;7.05;2.70;;;;;;;11.95;70.61;99135.16;5100306;28;20638;-78
2022/05/29 03:47:36;;;;;;;6.00;2.40;;;;;;;12.01;70.52;99137.44;5094014;28;20204;-79
2022/05/29 03:50:06;;;;;;;5.95;2.10;;;;;;;12.12;69.71;99128.56;5095467;28;20227;-78
2022/05/29 03:52:34;;;;;;;5.75;2.70;;;;;;;11.84;71.17;99125.09;5094570;28;20198;-78
2022/05/29 03:55:01;;;;;;;6.60;2.72;;;;;;;11.81;71.66;99122.63;5111510;28;20191;-79
2022/05/29 03:57:28;;;;;;;7.03;2.10;;;;;;;11.86;71.43;99113.22;5114995;28;20199;-78
2022/05/29 03:59:55;;;;;;;9.60;2.22;;;;;;;11.74;72.23;99118.66;5112030;28;20187;-78
2022/05/29 04:02:22;;;;;;;8.90;2.95;;;;;;;11.92;71.71;99121.88;5100144;28;20203;-78
2022/05/29 04:04:48;;;;;;;5.15;2.53;;;;;;;11.92;71.33;99111.97;5104489;28;20202;-78
2022/05/29 04:07:16;;;;;;;2.75;2.20;;;;;;;11.82;72.31;99117.09;5101807;28;20188;-78
2022/05/29 04:12:27;;;;;;;11.38;2.80;;;;;;;11.84;72.49;99120.56;5098597;28;20199;-78
2022/05/29 04:14:53;;;;;;;4.72;2.30;;;;;;;11.72;73.54;99124.13;5093464;28;20199;-78
2022/05/29 04:17:21;;;;;;;7.70;2.75;;;;;;;11.73;73.73;99116.91;5099861;28;20199;-78
2022/05/29 04:19:48;;;;;;;4.47;1.92;;;;;;;12.06;71.58;99116.38;5102207;28;20206;-78
2022/05/29 04:22:18;;;;;;;9.30;2.38;;;;;;;11.76;72.99;99124.75;5106518;28;20191;-78
2022/05/29 04:24:45;;;;;;;5.50;2.08;;;;;;;11.69;74.04;99122.53;5099815;28;20199;-79
2022/05/29 04:27:14;;;;;;;5.55;2.55;;;;;;;11.80;73.31;99132.56;5114604;28;20183;-78
2022/05/29 04:29:41;;;;;;;11.13;2.90;;;;;;;11.72;73.72;99121.44;5103281;28;20670;-78
2022/05/29 04:34:54;;;;;;;7.10;2.75;;;;;;;11.84;73.61;99119.72;5103940;28;20543;-79
2022/05/29 04:37:22;;;;;;;6.90;1.98;;;;;;;11.56;74.72;99121.66;5114276;28;20303;-78
2022/05/29 04:39:49;;;;;;;4.45;2.00;;;;;;;11.34;75.74;99126.81;5109062;28;20187;-78
2022/05/29 04:42:15;;;;;;;6.05;2.30;;;;;;;11.35;76.04;99124.00;5105361;27;20294;-78
2022/05/29 04:44:42;;;;;;;10.00;2.60;;;;;;;11.41;75.38;99118.19;5107000;28;20195;-78
2022/05/29 04:47:09;;;;;;;6.35;2.75;;;;;;;11.42;75.96;99128.00;5105747;28;20282;-79
2022/05/29 04:49:37;;;;;;;8.30;2.20;;;;;;;11.37;75.47;99122.03;5097080;28;20245;-79
2022/05/29 04:52:04;;;;;;;12.38;2.70;;;;;;;11.50;75.23;99115.81;5097742;28;20330;-79
2022/05/29 04:54:33;;;;;;;4.43;2.05;;;;;;;11.55;75.37;99119.06;5104742;28;20203;-78
2022/05/29 04:57:00;;;;;;;5.68;2.22;;;;;;;11.45;75.93;99117.00;5109717;28;20543;-78
2022/05/29 04:59:27;;;;;;;2.40;2.00;;;;;;;11.79;74.11;99117.34;5096379;28;20188;-79
2022/05/29 05:01:55;;;;;;;4.80;1.85;;;;;;;12.01;72.86;99118.56;5105190;28;20206;-79
2022/05/29 05:04:22;;;;;;;3.88;2.13;;;;;;;12.08;72.12;99119.84;5111362;28;20552;-78
2022/05/29 05:06:49;;;;;;;5.80;2.30;;;;;;;12.14;71.90;99119.38;5093335;28;20284;-78
2022/05/29 05:09:15;;;;;;;4.97;1.95;;;;;;;12.54;69.47;99124.56;5092872;28;20287;-78
2022/05/29 05:11:43;;;;;;;6.32;2.25;;;;;;;12.45;70.09;99122.53;5092950;28;20196;-79
2022/05/29 05:14:10;;;;;;;7.28;2.20;;;;;;;12.20;72.07;99126.16;5093510;28;20195;-79
2022/05/29 05:16:36;;;;;;;8.30;2.38;;;;;;;12.14;72.23;99129.31;5101173;28;20203;-78
2022/05/29 05:19:03;;;;;;;6.35;2.45;;;;;;;11.82;74.64;99133.28;5099666;28;20266;-79
2022/05/29 05:21:30;;;;;;;4.32;2.13;;;;;;;11.87;74.33;99130.25;5093265;28;20192;-77
2022/05/29 05:23:56;;;;;;;4.78;2.45;;;;;;;11.77;75.47;99140.00;5091688;28;20200;-78
2022/05/29 05:26:23;;;;;;;4.05;1.80;;;;;;;11.86;75.32;99140.19;5092762;28;20195;-79
2022/05/29 05:28:51;;;;;;;8.68;2.33;;;;;;;11.91;75.20;99147.16;5093025;28;20540;-78
2022/05/29 05:31:18;;;;;;;8.77;2.10;;;;;;;11.48;78.35;99137.50;5105447;28;20224;-78
2022/05/29 05:33:44;;;;;;;6.72;2.50;;;;;;;11.39;83.10;99140.81;5102106;28;20232;-79
2022/05/29 05:36:12;;;;;;;7.25;2.72;;;;;;;11.16;90.36;99134.31;5092948;28;20207;-79
2022/05/29 05:38:39;;;;;;;10.15;3.00;;;;;;;11.20;91.45;99135.84;5094422;28;20377;-80
2022/05/29 05:41:05;;;;;;;6.35;2.65;;;;;;;11.13;92.73;99138.09;5100892;28;20184;-79
2022/05/29 05:43:32;;;;;;;7.22;3.10;;;;;;;11.16;93.15;99137.88;5092147;28;20290;-80
2022/05/29 05:46:00;;;;;;;5.28;2.45;;;;;;;11.41;93.92;99133.50;5111149;28;20631;-78
2022/05/29 05:48:29;;;;;;;9.20;2.55;;;;;;;11.27;92.96;99131.75;5105881;28;20290;-78
2022/05/29 05:50:56;;;;;;;5.85;2.72;;;;;;;11.50;94.61;99132.84;5095461;28;20228;-78
2022/05/29 05:53:24;;;;;;;4.65;2.50;;;;;;;11.77;94.28;99142.69;5095637;28;20204;-78
2022/05/29 05:55:50;;;;;;;5.35;2.50;;;;;;;11.87;90.78;99141.97;5093000;28;20185;-79
2022/05/29 05:58:17;;;;;;;6.07;2.60;;;;;;;12.00;86.41;99136.56;5104460;28;20191;-80
2022/05/29 06:00:44;;;;;;;4.85;2.53;;;;;;;12.49;89.32;99132.16;5112799;28;20222;-79
2022/05/29 06:03:12;;;;;;;8.02;2.80;;;;;;;12.93;86.92;99136.97;5112301;28;20209;-79
2022/05/29 06:05:39;;;;;;;5.38;2.80;;;;;;;13.08;81.25;99139.47;5113056;28;20945;-80
2022/05/29 06:08:06;;;;;;;4.35;2.55;;;;;;;12.66;84.05;99134.47;5110903;28;20206;-79
2022/05/29 06:10:33;;;;;;;5.18;2.65;;;;;;;13.14;79.21;99139.88;5102962;28;20225;-79
2022/05/29 06:13:01;;;;;;;7.07;3.40;;;;;;;13.36;79.87;99143.66;5094405;28;20192;-79
2022/05/29 06:15:28;;;;;;;9.73;3.08;;;;;;;13.22;75.77;99139.28;5101074;28;20619;-80
2022/05/29 06:17:55;;;;;;;7.75;2.95;;;;;;;13.03;75.21;99137.13;5112358;28;20193;-80
2022/05/29 06:20:24;;;;;;;8.05;3.10;;;;;;;11.99;82.56;99139.38;5096704;28;20697;-79
2022/05/29 06:22:51;;;;;;;12.35;3.33;;;;;;;12.05;83.52;99147.00;5092560;28;20537;-79
2022/05/29 06:25:18;;;;;;;5.28;2.55;;;;;;;11.90;82.62;99146.28;5092955;28;20195;-79
2022/05/29 06:27:45;;;;;;;4.43;2.60;;;;;;;11.97;83.58;99135.94;5092086;28;20204;-80
2022/05/29 06:30:15;;;;;;;5.40;2.30;;;;;;;11.75;83.97;99139.25;5091884;28;20204;-80
2022/05/29 06:32:42;;;;;;;5.18;2.72;;;;;;;12.08;85.01;99138.72;5109615;28;20188;-80
2022/05/29 06:35:12;;;;;;;4.43;2.28;;;;;;;12.34;83.28;99141.38;5113915;28;20188;-80
2022/05/29 06:37:43;;;;;;;9.23;2.95;;;;;;;12.08;80.81;99138.72;5116734;28;20202;-78
2022/05/29 06:40:11;;;;;;;10.98;2.80;;;;;;;12.36;80.19;99142.97;5116425;28;20180;-80
2022/05/29 06:42:38;;;;;;;6.82;2.50;;;;;;;12.92;82.02;99146.03;5115663;28;20645;-81
2022/05/29 06:45:06;;;;;;;4.53;2.60;;;;;;;13.34;74.71;99134.78;5116766;28;20541;-80
2022/05/29 06:47:33;;;;;;;6.68;2.50;;;;;;;13.52;71.37;99144.22;5116756;28;20655;-79
2022/05/29 06:50:00;;;;;;;3.58;2.28;;;;;;;13.63;70.05;99142.50;5116612;28;20253;-79
2022/05/29 06:52:29;;;;;;;7.32;2.50;;;;;;;13.95;72.11;99135.44;5116701;28;20501;-79
2022/05/29 06:54:57;;;;;;;6.65;2.65;;;;;;;13.90;68.86;99131.34;5116249;28;20193;-79
2022/05/29 06:57:37;;;;;;;8.77;3.05;;;;;;;14.16;68.63;99137.41;5116308;28;20190;-79
2022/05/29 07:08:20;;;;;;;5.35;3.08;;;;;;;13.00;75.95;99145.47;5106535;28;20213;-79
2022/05/29 07:11:02;;;;;;;8.05;3.35;;;;;;;13.29;78.07;99137.00;5095813;28;20203;-79
2022/05/29 07:13:33;;;;;;;7.38;2.75;;;;;;;13.90;73.49;99137.63;5095224;28;20186;-80
2022/05/29 07:16:27;;;;;;;8.00;3.00;;;;;;;14.18;70.46;99130.03;5102181;28;20187;-81
2022/05/29 07:18:58;;;;;;;5.35;3.13;;;;;;;14.25;71.53;99133.94;5095699;28;20181;-79
2022/05/29 07:21:25;;;;;;;7.32;3.00;;;;;;;14.55;71.62;99132.47;5095579;28;20532;-79
2022/05/29 07:23:52;;;;;;;7.53;3.20;;;;;;;14.12;68.26;99133.22;5095084;28;20189;-78
2022/05/29 07:26:20;;;;;;;4.35;2.63;;;;;;;14.19;67.34;99126.31;5095519;28;20295;-79
2022/05/29 07:28:47;;;;;;;5.82;3.00;;;;;;;13.86;66.27;99138.88;5106044;28;20189;-79
2022/05/29 07:31:13;;;;;;;6.80;3.10;;;;;;;14.31;65.46;99136.19;5115107;28;20221;-79
2022/05/29 07:33:40;;;;;;;5.75;2.85;;;;;;;14.41;66.92;99135.44;5109810;28;20201;-80
2022/05/29 07:36:09;;;;;;;6.10;2.65;;;;;;;14.47;68.48;99137.59;5115744;28;20670;-79
2022/05/29 07:38:36;;;;;;;7.43;2.85;;;;;;;14.17;66.22;99131.84;5115729;28;20187;-79
2022/05/29 07:43:18;;;;;;;5.47;2.97;;;;;;;13.94;66.17;99133.69;5114869;28;20189;-79
2022/05/29 07:43:51;;;;;;;5.05;2.55;;;;;;;13.90;64.54;99125.94;5115259;28;20249;-79
2022/05/29 07:46:18;;;;;;;5.78;3.08;;;;;;;14.57;63.47;99119.66;5114371;28;20218;-79
2022/05/29 07:48:45;;;;;;;4.65;2.83;;;;;;;14.83;60.02;99122.91;5115569;28;20719;-79
2022/05/29 07:51:11;;;;;;;9.00;3.70;;;;;;;15.22;59.35;99115.16;5103954;28;20684;-79
2022/05/29 07:53:38;;;;;;;3.75;3.10;;;;;;;15.22;57.63;99116.00;5094579;28;20540;-79
2022/05/29 07:56:06;;;;;;;7.97;3.17;;;;;;;15.47;56.15;99118.44;5094299;28;20212;-80
2022/05/29 07:58:33;;;;;;;7.50;2.78;;;;;;;15.50;54.70;99115.47;5094615;28;20275;-79
2022/05/29 08:01:02;;;;;;;5.60;2.50;;;;;;;15.93;51.05;99126.19;5094926;28;20192;-78
2022/05/29 08:03:29;;;;;;;4.78;2.78;;;;;;;16.68;50.03;99116.75;5094814;28;20536;-79
2022/05/29 08:05:57;;;;;;;6.88;2.40;;;;;;;17.06;47.17;99119.72;5094744;28;20207;-79
2022/05/29 08:08:24;;;;;;;9.70;2.60;;;;;;;16.94;47.24;99127.16;5105406;28;20544;-79
2022/05/29 08:10:51;;;;;;;7.15;5.60;;;;;;;17.32;45.61;99120.00;5115106;28;20207;-79
2022/05/29 08:13:18;;;;;;;4.93;2.95;;;;;;;16.29;49.84;99126.66;5114921;28;20217;-79
2022/05/29 08:15:45;;;;;;;3.63;2.50;;;;;;;15.71;52.50;99120.94;5114590;28;20266;-79
2022/05/29 08:18:13;;;;;;;7.63;3.10;;;;;;;14.84;57.15;99118.38;5114938;28;20195;-79
2022/05/29 08:20:40;;;;;;;4.47;2.88;;;;;;;14.35;57.26;99124.09;5114300;28;20182;-80
2022/05/29 08:23:07;;;;;;;6.68;2.95;;;;;;;14.31;56.56;99113.63;5114309;28;20190;-79
2022/05/29 08:31:03;;;;;;;5.40;2.58;;;;;;;14.74;54.61;99116.44;5093911;28;20214;-79
2022/05/29 08:33:33;;;;;;;5.30;2.78;;;;;;;15.41;53.11;99111.69;5093846;28;20284;-79
2022/05/29 08:36:03;;;;;;;6.10;2.78;;;;;;;15.99;50.28;99108.53;5094071;28;20272;-80
2022/05/29 08:38:31;;;;;;;9.93;2.70;;;;;;;16.17;49.11;99116.91;5106922;28;20205;-80
2022/05/29 08:41:02;;;;;;;3.72;2.10;;;;;;;16.26;47.70;99116.06;5094720;28;20197;-80
2022/05/29 08:43:34;;;;;;;7.13;2.70;;;;;;;17.03;46.28;99109.97;5106774;28;20248;-81
2022/05/29 08:46:06;;;;;;;5.45;2.90;;;;;;;17.76;44.41;99112.19;5108114;28;20195;-80
2022/05/29 08:48:34;;;;;;;5.43;2.63;;;;;;;17.35;43.46;99107.97;5100027;28;20192;-80
2022/05/29 08:51:31;;;;;;;3.75;2.25;;;;;;;17.64;43.93;99100.63;5099844;28;20226;-80
2022/05/29 08:54:10;;;;;;;9.32;3.00;;;;;;;16.60;45.68;99110.31;5111057;28;20286;-80
2022/05/29 08:56:43;;;;;;;3.67;2.97;;;;;;;17.23;43.69;99107.25;5105828;28;20246;-80
2022/05/29 08:59:16;;;;;;;3.75;2.20;;;;;;;17.51;42.92;99100.91;5098646;28;20199;-80
2022/05/29 09:01:52;;;;;;;3.63;2.00;;;;;;;16.85;43.80;99107.09;5100614;28;20548;-81
2022/05/29 09:04:29;;;;;;;7.50;2.40;;;;;;;16.24;44.20;99101.78;5109497;28;20191;-79
2022/05/29 09:06:57;;;;;;;4.85;2.55;;;;;;;16.96;42.67;99099.78;5099295;28;20196;-79
2022/05/29 09:09:28;;;;;;;7.03;2.70;;;;;;;17.68;41.31;99093.00;5099806;28;20969;-81
2022/05/29 09:11:59;;;;;;;3.85;1.92;;;;;;;18.46;39.35;99100.94;5101549;28;20776;-81
2022/05/29 09:14:36;;;;;;;6.47;2.53;;;;;;;18.13;39.02;99095.94;5103939;28;20197;-80
2022/05/29 09:17:06;;;;;;;3.58;2.15;;;;;;;18.27;38.83;99085.50;5105545;28;20204;-80
2022/05/29 09:19:42;;;;;;;7.35;2.28;;;;;;;18.29;39.17;99089.84;5106965;28;21024;-79
2022/05/29 09:22:15;;;;;;;5.65;2.20;;;;;;;16.20;44.80;99089.44;5098180;28;20206;-79
2022/05/29 09:24:51;;;;;;;3.92;2.10;;;;;;;16.53;44.85;99092.81;5098991;28;20517;-78
2022/05/29 09:27:18;;;;;;;6.43;2.25;;;;;;;16.69;44.52;99098.59;5101522;28;20195;-78
2022/05/29 09:29:45;;;;;;;4.00;2.13;;;;;;;16.58;44.17;99098.72;5101222;28;20520;-79
2022/05/29 09:32:19;;;;;;;4.95;2.13;;;;;;;15.88;45.14;99089.59;5100993;28;20208;-79
2022/05/29 09:34:58;;;;;;;5.15;2.42;;;;;;;16.16;44.19;99093.44;5111304;28;20191;-79
2022/05/29 09:37:35;;;;;;;4.63;1.95;;;;;;;15.94;44.45;99094.47;5102377;28;20248;-80
2022/05/29 09:40:04;;;;;;;3.33;2.05;;;;;;;16.25;43.15;99093.47;5097088;28;20279;-79
2022/05/29 09:42:37;;;;;;;3.75;2.30;;;;;;;17.14;41.88;99092.66;5106014;28;20179;-79
2022/05/29 09:45:11;;;;;;;4.05;2.05;;;;;;;16.98;42.03;99095.06;5092233;28;20190;-79
2022/05/29 09:50:37;;;;;;;5.40;2.15;;;;;;;17.94;39.78;99084.25;5104059;28;20310;-79
2022/05/29 09:53:10;;;;;;;4.15;2.05;;;;;;;18.08;39.61;99089.19;5109726;28;20652;-79
2022/05/29 09:55:37;;;;;;;2.95;2.35;;;;;;;17.24;39.99;99088.06;5102187;28;20556;-79
2022/05/29 09:58:09;;;;;;;5.35;1.95;;;;;;;16.38;42.18;99082.34;5112455;28;20195;-81
2022/05/29 10:00:38;;;;;;;5.13;2.33;;;;;;;16.15;42.40;99087.16;5099819;28;20203;-81
2022/05/29 10:03:08;;;;;;;2.90;1.85;;;;;;;16.28;40.92;99076.06;5112674;28;20207;-80
2022/05/29 10:05:39;;;;;;;5.60;2.42;;;;;;;15.96;39.76;99082.47;5113168;28;20697;-81
2022/05/29 10:08:19;;;;;;;3.70;1.58;;;;;;;15.13;40.84;99088.81;5113236;28;20190;-81
2022/05/29 10:10:46;;;;;;;3.35;1.70;;;;;;;15.11;40.54;99074.53;5112489;28;20547;-81
2022/05/29 10:13:37;;;;;;;2.10;1.80;;;;;;;15.41;38.50;99077.28;5112970;28;20198;-82
2022/05/29 10:16:07;;;;;;;3.05;2.42;;;;;;;15.91;39.14;99078.47;5112565;28;20186;-82
2022/05/29 10:18:41;;;;;;;5.05;2.10;;;;;;;16.88;37.27;99074.19;5113019;28;20671;-81
2022/05/29 10:21:14;;;;;;;4.90;2.00;;;;;;;17.44;36.37;99074.44;5112536;28;20187;-81
2022/05/29 10:23:42;;;;;;;2.90;1.50;;;;;;;18.06;35.65;99066.69;5113252;28;20183;-81
2022/05/29 10:26:17;;;;;;;4.95;2.33;;;;;;;18.56;34.78;99055.38;5112941;28;20199;-81
2022/05/29 10:28:46;;;;;;;4.75;2.22;;;;;;;18.50;34.42;99047.84;5112733;28;20187;-81
2022/05/29 10:31:28;;;;;;;3.65;1.88;;;;;;;19.18;33.61;99050.06;5113308;28;20207;-82
2022/05/29 10:34:10;;;;;;;3.58;2.35;;;;;;;19.17;34.68;99051.06;5112241;28;20192;-81
2022/05/29 10:36:38;;;;;;;6.00;2.50;;;;;;;18.66;36.49;99044.44;5112537;28;20200;-81
2022/05/29 10:39:09;;;;;;;2.13;1.90;;;;;;;18.37;36.52;99048.19;5112456;28;20200;-81
2022/05/29 10:41:38;;;;;;;3.90;2.05;;;;;;;17.58;37.81;99044.03;5109177;28;20180;-82
2022/05/29 10:44:07;;;;;;;4.15;1.90;;;;;;;17.05;37.72;99045.41;5101062;28;20195;-81
2022/05/29 10:46:45;;;;;;;2.97;2.40;;;;;;;16.81;37.89;99045.00;5112768;28;20550;-81
2022/05/29 10:49:24;;;;;;;3.88;1.95;;;;;;;16.89;36.57;99050.56;5113438;28;20234;-80
2022/05/29 10:52:28;;;;;;;4.32;2.28;;;;;;;17.16;35.75;99041.66;5112696;28;20584;-80
2022/05/29 10:55:08;;;;;;;2.67;2.17;;;;;;;17.17;35.42;99045.28;5110071;28;20209;-81
2022/05/29 10:58:03;;;;;;;5.93;2.10;;;;;;;17.19;37.44;99046.84;5112406;28;20192;-81
2022/05/29 11:00:43;;;;;;;2.40;2.17;;;;;;;17.49;37.15;99029.44;5068302;28;20206;-80
2022/05/29 11:03:34;;;;;;;3.72;2.65;;;;;;;17.58;36.96;99032.31;5110908;28;20203;-81
2022/05/29 11:06:21;;;;;;;2.85;1.75;;;;;;;17.56;37.26;99034.31;5095345;28;20545;-81
2022/05/29 11:08:59;;;;;;;2.85;2.30;;;;;;;17.85;36.31;99032.38;5112502;28;20177;-81
2022/05/29 11:11:38;;;;;;;3.30;2.15;;;;;;;17.64;35.60;99027.13;5107605;28;20217;-81
2022/05/29 11:14:24;;;;;;;2.53;1.60;;;;;;;17.47;35.27;99017.84;5093300;28;20184;-80
2022/05/29 11:17:02;;;;;;;2.92;2.10;;;;;;;17.35;36.03;99026.34;5100777;28;20626;-80
2022/05/29 11:20:00;;;;;;;2.08;1.70;;;;;;;16.72;37.53;99024.91;5093421;28;20188;-81
2022/05/29 11:22:33;;;;;;;3.00;1.80;;;;;;;17.14;36.39;99021.94;5096719;28;20218;-81
2022/05/29 11:25:14;;;;;;;4.80;1.90;;;;;;;17.45;35.83;99013.56;5095902;28;20184;-80
2022/05/29 11:27:58;;;;;;;4.35;2.08;;;;;;;18.42;33.87;98999.50;5095925;28;20292;-81
2022/05/29 11:30:31;;;;;;;2.40;1.85;;;;;;;18.72;33.50;99001.03;5104451;28;20196;-82
2022/05/29 11:33:16;;;;;;;2.97;1.95;;;;;;;17.76;33.47;98999.72;5115136;28;20297;-82
2022/05/29 11:36:01;;;;;;;6.20;1.83;;;;;;;17.00;33.14;99001.47;5115771;28;20230;-81
2022/05/29 11:38:57;;;;;;;3.05;1.70;;;;;;;17.07;33.31;99007.19;5111050;28;20245;-82
2022/05/29 11:41:31;;;;;;;3.20;1.83;;;;;;;17.22;32.76;98988.56;5114588;28;20189;-81
2022/05/29 11:44:02;;;;;;;2.92;1.88;;;;;;;17.08;32.54;99000.75;5115522;28;20219;-81
2022/05/29 11:52:20;;;;;;;3.97;1.90;;;;;;;17.34;32.22;98976.50;5095286;28;20573;-80
2022/05/29 11:54:57;;;;;;;2.85;1.95;;;;;;;17.36;32.50;98973.63;5095435;28;20195;-79
2022/05/29 11:57:31;;;;;;;4.25;2.58;;;;;;;17.74;31.90;98975.34;5105607;28;20194;-80
2022/05/29 12:00:03;;;;;;;2.78;1.90;;;;;;;17.59;31.21;98972.28;5114987;28;20275;-81
2022/05/29 12:02:34;;;;;;;4.68;1.83;;;;;;;17.14;30.99;98967.53;5115100;28;20713;-81
2022/05/29 12:05:16;;;;;;;2.63;2.17;;;;;;;17.34;31.32;98972.91;5115543;28;20194;-81
2022/05/29 12:07:47;;;;;;;2.30;1.75;;;;;;;17.38;30.21;98963.47;5115178;28;20278;-81
2022/05/29 12:10:20;;;;;;;4.68;1.90;;;;;;;17.39;30.22;98957.00;5114925;28;20496;-80
2022/05/29 12:12:59;;;;;;;2.72;1.95;;;;;;;17.66;30.13;98951.63;5114279;28;20211;-81
2022/05/29 12:15:26;;;;;;;2.78;2.00;;;;;;;17.17;31.15;98948.19;5114736;28;20191;-81
2022/05/29 12:17:58;;;;;;;3.10;1.90;;;;;;;17.22;30.59;98950.47;5114793;28;20195;-81
2022/05/29 12:20:40;;;;;;;4.03;2.42;;;;;;;17.14;30.70;98953.06;5114770;28;20194;-81
2022/05/29 12:23:26;;;;;;;3.88;2.60;;;;;;;17.45;29.82;98951.81;5114741;28;20522;-81